Terminal Aerodrome Forecast
Issued by NWS Wilmington, OH

Home | Current Version | Previous Version | Text Only | Print | Product List | Glossary On
Versions: 1 2 3 4 5 6 7 8 9 10 11 12 13 14 15 16
220
FTUS41 KILN 141137
TAFCMH
TAF
KCMH 141137Z 1412/1512 12008KT P6SM OVC200
     FM142200 12008KT 3SM -SN SCT015 OVC035
     FM150000 12008KT 3SM -SN BKN015 OVC025
      TEMPO 1500/1502 2SM -SN
     FM150800 14008KT 4SM -FZDZ OVC007=

USA.gov is the U.S. government's official web portal to all federal, state and local government web resources and services.